createdAt,value
2023-07-21T00:02:24.860Z,2.97
2023-07-21T00:05:11.102Z,2.80
2023-07-21T00:07:37.950Z,3.17
2023-07-21T00:10:11.170Z,3.13
2023-07-21T00:12:41.483Z,3.33
2023-07-21T00:15:08.577Z,3.10
2023-07-21T00:17:35.890Z,3.10
2023-07-21T00:20:08.733Z,2.88
2023-07-21T00:22:35.444Z,2.95
2023-07-21T00:25:02.445Z,3.05
2023-07-21T00:27:29.133Z,2.90
2023-07-21T00:29:55.789Z,3.00
2023-07-21T00:32:23.930Z,3.13
2023-07-21T00:34:52.430Z,3.50
2023-07-21T00:37:19.137Z,3.05
2023-07-21T00:39:46.103Z,3.15
2023-07-21T00:42:12.848Z,3.40
2023-07-21T00:44:39.513Z,2.97
2023-07-21T00:47:06.785Z,3.15
2023-07-21T00:49:34.500Z,2.83
2023-07-21T00:52:01.250Z,3.05
2023-07-21T00:54:27.923Z,3.10
2023-07-21T00:56:54.658Z,2.90
2023-07-21T00:59:21.358Z,3.28
2023-07-21T01:01:48.079Z,3.45
2023-07-21T01:04:14.766Z,3.00
2023-07-21T01:06:42.395Z,3.40
2023-07-21T01:09:09.605Z,3.03
2023-07-21T01:11:37.113Z,3.30
2023-07-21T01:14:04.091Z,3.47
2023-07-21T01:16:30.856Z,3.22
2023-07-21T01:18:57.697Z,3.40
2023-07-21T01:21:35.529Z,3.30
2023-07-21T01:24:08.009Z,2.73
2023-07-21T01:26:37.129Z,2.78
2023-07-21T01:29:06.244Z,3.25
2023-07-21T01:31:34.095Z,2.92
2023-07-21T01:34:00.781Z,3.00
2023-07-21T01:36:27.772Z,3.13
2023-07-21T01:38:54.765Z,3.10
2023-07-21T01:41:21.528Z,3.20
2023-07-21T01:43:49.606Z,3.35
2023-07-21T01:46:17.126Z,3.10
2023-07-21T01:48:45.103Z,2.97
2023-07-21T01:51:11.774Z,2.87
2023-07-21T01:53:38.570Z,3.20
2023-07-21T01:56:13.923Z,2.95
2023-07-21T01:58:40.621Z,3.05
2023-07-21T02:01:07.418Z,2.85
2023-07-21T02:03:34.789Z,2.83
2023-07-21T02:06:01.714Z,2.93
2023-07-21T02:08:28.402Z,3.37
2023-07-21T02:10:55.331Z,3.00
2023-07-21T02:13:35.788Z,2.70
2023-07-21T02:16:02.761Z,2.95
2023-07-21T02:18:29.456Z,3.13
2023-07-21T02:20:56.145Z,2.77
2023-07-21T02:23:22.881Z,2.90
2023-07-21T02:25:49.545Z,2.70
2023-07-21T02:28:16.270Z,2.90
2023-07-21T02:30:43.068Z,3.28
2023-07-21T02:33:10.551Z,3.10
2023-07-21T02:35:37.431Z,2.90
2023-07-21T02:38:04.805Z,3.38
2023-07-21T02:40:32.406Z,2.90
2023-07-21T02:42:59.748Z,2.80
2023-07-21T02:45:26.575Z,3.20
2023-07-21T02:47:53.320Z,3.00
2023-07-21T02:50:20.179Z,3.60
2023-07-21T02:52:46.827Z,3.00
2023-07-21T02:55:13.506Z,3.15
2023-07-21T02:57:40.180Z,3.17
2023-07-21T03:00:13.949Z,2.80
2023-07-21T03:02:50.685Z,3.37
2023-07-21T03:05:17.573Z,3.10
2023-07-21T03:07:44.327Z,3.05
2023-07-21T03:10:12.534Z,3.30
2023-07-21T03:12:39.906Z,3.53
2023-07-21T03:15:12.843Z,3.45
2023-07-21T03:17:52.331Z,3.33
2023-07-21T03:20:19.221Z,3.20
2023-07-21T03:22:46.547Z,3.30
2023-07-21T03:25:14.664Z,3.20
2023-07-21T03:27:41.912Z,3.10
2023-07-21T03:30:11.211Z,3.60
2023-07-21T03:32:46.777Z,3.20
2023-07-21T03:35:13.778Z,3.37
2023-07-21T03:37:41.736Z,3.47
2023-07-21T03:40:09.050Z,3.60
2023-07-21T03:42:36.123Z,3.78
2023-07-21T03:45:06.502Z,3.42
2023-07-21T03:47:33.766Z,3.30
2023-07-21T03:50:00.642Z,3.50
2023-07-21T03:52:28.331Z,3.55
2023-07-21T03:54:56.390Z,3.47
2023-07-21T03:57:23.478Z,3.80
2023-07-21T03:59:51.207Z,4.47
2023-07-21T04:02:18.710Z,5.03
2023-07-21T04:04:46.658Z,5.17
2023-07-21T04:07:14.116Z,4.88
2023-07-21T04:09:40.994Z,4.45
2023-07-21T04:12:08.221Z,4.60
2023-07-21T04:14:35.032Z,5.13
2023-07-21T04:17:01.757Z,3.92
2023-07-21T04:19:28.499Z,4.93
2023-07-21T04:21:56.330Z,5.33
2023-07-21T04:24:24.591Z,4.97
2023-07-21T04:26:51.343Z,3.00
2023-07-21T04:29:34.036Z,3.40
2023-07-21T04:32:03.101Z,3.88
2023-07-21T04:34:30.863Z,3.40
2023-07-21T04:36:58.610Z,3.58
2023-07-21T04:39:34.298Z,3.70
2023-07-21T04:42:01.606Z,3.70
2023-07-21T04:44:28.373Z,4.03
2023-07-21T04:46:55.318Z,4.38
2023-07-21T04:49:25.422Z,7.05
2023-07-21T04:51:53.119Z,5.10
2023-07-21T04:54:19.943Z,4.47
2023-07-21T04:56:47.909Z,8.50
2023-07-21T04:59:15.581Z,4.83
2023-07-21T05:01:42.575Z,4.40
2023-07-21T05:04:09.511Z,4.32
2023-07-21T05:06:38.322Z,4.38
2023-07-21T05:09:05.037Z,4.05
2023-07-21T05:11:32.770Z,4.07
2023-07-21T05:14:00.204Z,4.05
2023-07-21T05:16:48.708Z,3.85
2023-07-21T05:19:26.613Z,3.80
2023-07-21T05:22:20.957Z,4.55
2023-07-21T05:25:06.643Z,3.93
2023-07-21T05:27:35.556Z,4.47
2023-07-21T05:30:06.816Z,4.43
2023-07-21T05:32:37.019Z,4.68
2023-07-21T05:35:09.519Z,4.32
2023-07-21T05:37:37.984Z,4.32
2023-07-21T05:40:06.575Z,4.20
2023-07-21T05:42:35.077Z,4.90
2023-07-21T05:45:06.637Z,4.63
2023-07-21T05:47:34.275Z,4.53
2023-07-21T05:50:02.058Z,4.70
2023-07-21T05:52:31.372Z,5.45
2023-07-21T05:54:58.317Z,5.38
2023-07-21T05:57:28.854Z,8.63
2023-07-21T05:59:56.669Z,12.97
2023-07-21T06:02:23.829Z,8.43
2023-07-21T06:04:58.909Z,5.95
2023-07-21T06:07:32.022Z,5.55
2023-07-21T06:10:22.495Z,5.80
2023-07-21T06:13:02.020Z,5.20
2023-07-21T06:15:50.834Z,5.00
2023-07-21T06:18:22.472Z,5.20
2023-07-21T06:20:52.274Z,5.10
2023-07-21T06:23:19.411Z,4.40
2023-07-21T06:25:47.116Z,4.33
2023-07-21T06:28:16.554Z,4.20
2023-07-21T06:30:43.286Z,4.22
2023-07-21T06:33:15.824Z,3.88
2023-07-21T06:35:46.404Z,4.38
2023-07-21T06:38:15.994Z,4.07
2023-07-21T06:40:52.227Z,4.43
2023-07-21T06:43:37.584Z,4.18
2023-07-21T06:46:21.281Z,4.33
2023-07-21T06:49:07.961Z,4.70
2023-07-21T06:51:54.930Z,4.10
2023-07-21T06:54:24.960Z,4.18
2023-07-21T06:56:51.930Z,4.47
2023-07-21T06:59:18.575Z,4.82
2023-07-21T07:01:45.422Z,4.47
2023-07-21T07:04:12.192Z,3.80
2023-07-21T07:06:38.985Z,4.63
2023-07-21T07:09:05.805Z,4.80
2023-07-21T07:11:32.504Z,4.88
2023-07-21T07:13:59.229Z,4.63
2023-07-21T07:16:25.987Z,4.40
2023-07-21T07:18:52.792Z,5.13
2023-07-21T07:21:19.538Z,5.00
2023-07-21T07:23:46.274Z,4.63
2023-07-21T07:26:12.975Z,4.65
2023-07-21T07:28:40.083Z,4.20
2023-07-21T07:31:07.238Z,4.95
2023-07-21T07:33:33.972Z,4.45
2023-07-21T07:36:03.336Z,4.60
2023-07-21T07:38:30.451Z,4.97
2023-07-21T07:41:04.952Z,5.00
2023-07-21T07:43:33.509Z,5.18
2023-07-21T07:46:00.318Z,5.03
2023-07-21T07:48:27.154Z,6.22
2023-07-21T07:50:54.822Z,5.40
2023-07-21T07:53:21.610Z,5.63
2023-07-21T07:55:48.314Z,5.80
2023-07-21T07:58:15.252Z,6.70
2023-07-21T08:00:45.655Z,6.22
2023-07-21T08:03:13.259Z,6.95
2023-07-21T08:05:40.961Z,7.90
2023-07-21T08:08:09.259Z,8.02
2023-07-21T08:10:36.405Z,7.38
2023-07-21T08:13:05.251Z,6.75
2023-07-21T08:15:32.076Z,6.57
2023-07-21T08:17:58.896Z,7.20
2023-07-21T08:20:25.657Z,8.07
2023-07-21T08:22:52.552Z,10.80
2023-07-21T08:25:19.984Z,7.35
2023-07-21T08:27:46.704Z,8.27
2023-07-21T08:30:13.715Z,6.53
2023-07-21T08:32:42.060Z,8.23
2023-07-21T08:35:11.833Z,6.13
2023-07-21T08:37:39.407Z,8.18
2023-07-21T08:40:07.852Z,7.75
2023-07-21T08:42:34.593Z,6.50
2023-07-21T08:45:04.392Z,7.90
2023-07-21T08:47:31.825Z,7.10
2023-07-21T08:49:58.972Z,7.82
2023-07-21T08:52:26.504Z,8.25
2023-07-21T08:54:54.529Z,7.07
2023-07-21T08:57:21.292Z,9.25
2023-07-21T08:59:48.338Z,8.45
2023-07-21T09:02:15.038Z,8.85
2023-07-21T09:04:43.467Z,8.40
2023-07-21T09:07:11.009Z,6.00
2023-07-21T09:09:37.705Z,5.77
2023-07-21T09:12:07.140Z,6.20
2023-07-21T09:14:43.900Z,6.32
2023-07-21T09:17:12.138Z,6.50
2023-07-21T09:19:43.196Z,5.82
2023-07-21T09:22:10.103Z,5.97
2023-07-21T09:24:38.603Z,6.15
2023-07-21T09:27:13.589Z,6.05
2023-07-21T09:29:41.419Z,5.93
2023-07-21T09:32:18.544Z,6.60
2023-07-21T09:35:02.512Z,5.80
2023-07-21T09:37:30.464Z,5.97
2023-07-21T09:39:58.790Z,6.10
2023-07-21T09:42:26.790Z,5.80
2023-07-21T09:44:54.041Z,6.50
2023-07-21T09:47:21.132Z,6.57
2023-07-21T09:49:49.390Z,6.10
2023-07-21T09:52:19.323Z,6.47
2023-07-21T09:54:49.229Z,5.97
2023-07-21T09:57:17.988Z,5.70
2023-07-21T09:59:47.137Z,5.30
2023-07-21T10:02:13.976Z,5.43
2023-07-21T10:04:40.711Z,5.95
2023-07-21T10:07:07.613Z,6.03
2023-07-21T10:09:35.150Z,5.78
2023-07-21T10:12:15.743Z,6.00
2023-07-21T10:14:42.653Z,6.40
2023-07-21T10:17:09.603Z,6.00
2023-07-21T10:19:42.901Z,5.57
2023-07-21T10:22:15.651Z,5.73
2023-07-21T10:24:47.273Z,5.30
2023-07-21T10:27:21.674Z,5.57
2023-07-21T10:29:57.333Z,6.15
2023-07-21T10:32:24.578Z,5.93
2023-07-21T10:34:52.769Z,5.97
2023-07-21T10:37:20.147Z,5.93
2023-07-21T10:39:55.937Z,6.35
2023-07-21T10:42:22.779Z,6.13
2023-07-21T10:44:49.522Z,5.93
2023-07-21T10:47:17.122Z,5.47
2023-07-21T10:49:44.335Z,5.20
2023-07-21T10:52:12.347Z,5.22
2023-07-21T10:54:39.602Z,5.18
2023-07-21T10:57:06.517Z,5.15
2023-07-21T10:59:34.399Z,5.50
2023-07-21T11:02:01.682Z,4.90
2023-07-21T11:04:28.572Z,4.20
2023-07-21T11:06:56.253Z,4.60
2023-07-21T11:09:23.064Z,4.80
2023-07-21T11:11:54.555Z,4.33
2023-07-21T11:14:25.308Z,3.97
2023-07-21T11:16:52.679Z,4.30
2023-07-21T11:19:20.358Z,4.45
2023-07-21T11:21:49.572Z,4.53
2023-07-21T11:24:18.539Z,4.22
2023-07-21T11:26:45.690Z,4.20
2023-07-21T11:29:12.433Z,3.70
2023-07-21T11:31:39.341Z,4.35
2023-07-21T11:34:18.481Z,3.95
2023-07-21T11:36:45.353Z,3.90
2023-07-21T11:39:15.773Z,4.00
2023-07-21T11:41:42.545Z,4.55
2023-07-21T11:44:14.146Z,4.32
2023-07-21T11:46:41.126Z,4.68
2023-07-21T11:49:12.049Z,4.57
2023-07-21T11:51:46.335Z,4.20
2023-07-21T11:54:22.317Z,4.43
2023-07-21T11:56:49.164Z,4.70
2023-07-21T11:59:16.519Z,5.07
2023-07-21T12:01:43.385Z,4.73
2023-07-21T12:04:11.059Z,4.40
2023-07-21T12:06:38.081Z,5.50
2023-07-21T12:09:07.020Z,4.63
2023-07-21T12:11:39.439Z,5.55
2023-07-21T12:14:06.236Z,5.25
2023-07-21T12:16:33.299Z,4.70
2023-07-21T12:19:00.113Z,4.00
2023-07-21T12:21:28.295Z,4.50
2023-07-21T12:23:55.143Z,4.88
2023-07-21T12:26:21.942Z,4.80
2023-07-21T12:28:51.905Z,4.57
2023-07-21T12:31:18.915Z,5.20
2023-07-21T12:33:46.372Z,4.80
2023-07-21T12:36:13.344Z,4.78
2023-07-21T12:38:40.183Z,4.97
2023-07-21T12:41:06.913Z,4.45
2023-07-21T12:43:33.605Z,4.80
2023-07-21T12:46:01.757Z,4.32
2023-07-21T12:48:29.961Z,5.47
2023-07-21T12:50:56.785Z,5.87
2023-07-21T12:53:23.576Z,4.90
2023-07-21T12:55:53.127Z,5.32
2023-07-21T12:58:19.888Z,5.32
2023-07-21T13:00:47.179Z,6.80
2023-07-21T13:03:14.155Z,5.65
2023-07-21T13:05:54.511Z,5.40
2023-07-21T13:08:23.604Z,4.82
2023-07-21T13:10:50.868Z,5.45
2023-07-21T13:13:17.786Z,5.78
2023-07-21T13:15:44.865Z,5.63
2023-07-21T13:18:12.076Z,5.47
2023-07-21T13:20:39.041Z,5.13
2023-07-21T13:23:06.259Z,5.32
2023-07-21T13:25:33.092Z,5.00
2023-07-21T13:28:00.431Z,5.55
2023-07-21T13:30:27.403Z,5.10
2023-07-21T13:32:54.942Z,4.38
2023-07-21T13:35:22.245Z,5.05
2023-07-21T13:37:49.234Z,5.68
2023-07-21T13:40:16.442Z,5.77
2023-07-21T13:42:44.923Z,5.10
2023-07-21T13:45:13.293Z,4.40
2023-07-21T13:47:40.537Z,4.85
2023-07-21T13:50:10.172Z,5.13
2023-07-21T13:52:37.935Z,5.20
2023-07-21T13:55:05.197Z,5.05
2023-07-21T13:57:32.127Z,4.18
2023-07-21T13:59:59.123Z,5.13
2023-07-21T14:02:26.387Z,5.20
2023-07-21T14:04:53.856Z,4.73
2023-07-21T14:07:20.810Z,4.93
2023-07-21T14:09:48.102Z,4.78
2023-07-21T14:12:15.139Z,4.30
2023-07-21T14:14:42.377Z,5.65
2023-07-21T14:17:09.556Z,5.32
2023-07-21T14:19:36.677Z,5.40
2023-07-21T14:22:04.068Z,4.53
2023-07-21T14:24:31.338Z,4.50
2023-07-21T14:26:58.380Z,5.15
2023-07-21T14:29:25.951Z,4.70
2023-07-21T14:31:53.218Z,4.23
2023-07-21T14:34:20.293Z,4.60
2023-07-21T14:36:47.441Z,4.70
2023-07-21T14:39:14.777Z,3.97
2023-07-21T14:41:42.188Z,3.97
2023-07-21T14:44:09.301Z,3.63
2023-07-21T14:46:36.412Z,3.85
2023-07-21T14:49:07.133Z,3.38
2023-07-21T14:51:34.198Z,3.80
2023-07-21T14:54:01.214Z,4.00
2023-07-21T14:56:28.293Z,3.77
2023-07-21T14:58:55.362Z,4.10
2023-07-21T15:01:22.094Z,3.70
2023-07-21T15:03:48.957Z,4.15
2023-07-21T15:06:15.680Z,4.13
2023-07-21T15:08:42.388Z,4.00
2023-07-21T15:11:09.889Z,4.28
2023-07-21T15:13:36.684Z,4.10
2023-07-21T15:16:03.434Z,4.50
2023-07-21T15:18:30.195Z,3.80
2023-07-21T15:20:56.901Z,3.80
2023-07-21T15:23:23.629Z,3.72
2023-07-21T15:25:50.441Z,3.75
2023-07-21T15:28:17.183Z,3.72
2023-07-21T15:30:44.878Z,4.43
2023-07-21T15:33:12.876Z,3.55
2023-07-21T15:35:46.566Z,4.07
2023-07-21T15:38:13.436Z,4.37
2023-07-21T15:40:40.235Z,3.90
2023-07-21T15:43:07.074Z,3.78
2023-07-21T15:45:34.339Z,3.42
2023-07-21T15:48:01.274Z,4.25
2023-07-21T15:50:28.074Z,3.80
2023-07-21T15:52:54.844Z,3.67
2023-07-21T15:55:21.682Z,3.60
2023-07-21T15:57:50.336Z,3.50
2023-07-21T16:00:20.746Z,3.90
2023-07-21T16:02:47.940Z,3.10
2023-07-21T16:05:17.908Z,3.58
2023-07-21T16:07:45.061Z,3.47
2023-07-21T16:10:12.667Z,3.45
2023-07-21T16:12:39.648Z,3.35
2023-07-21T16:15:07.861Z,3.15
2023-07-21T16:17:34.763Z,3.75
2023-07-21T16:20:09.116Z,3.17
2023-07-21T16:22:37.258Z,3.20
2023-07-21T16:25:04.520Z,3.10
2023-07-21T16:27:32.469Z,3.75
2023-07-21T16:29:59.382Z,3.28
2023-07-21T16:32:26.752Z,3.60
2023-07-21T16:34:53.750Z,3.90
2023-07-21T16:37:20.821Z,3.47
2023-07-21T16:39:50.603Z,3.43
2023-07-21T16:42:18.441Z,3.35
2023-07-21T16:44:45.469Z,3.50
2023-07-21T16:47:12.521Z,3.63
2023-07-21T16:49:39.545Z,3.55
2023-07-21T16:52:07.245Z,3.17
2023-07-21T16:54:34.356Z,3.47
2023-07-21T16:57:01.892Z,3.60
2023-07-21T16:59:32.130Z,3.13
2023-07-21T17:02:02.190Z,3.53
2023-07-21T17:04:33.208Z,3.28
2023-07-21T17:07:01.185Z,3.17
2023-07-21T17:09:28.641Z,3.67
2023-07-21T17:11:56.074Z,4.63
2023-07-21T17:14:23.772Z,3.70
2023-07-21T17:16:52.324Z,4.18
2023-07-21T17:19:20.807Z,4.28
2023-07-21T17:21:48.161Z,3.90
2023-07-21T17:24:15.160Z,4.80
2023-07-21T17:26:42.114Z,6.03
2023-07-21T17:29:09.499Z,6.37
2023-07-21T17:31:36.602Z,5.22
2023-07-21T17:34:03.372Z,5.55
2023-07-21T17:36:30.362Z,5.20
2023-07-21T17:38:57.600Z,4.53
2023-07-21T17:41:25.152Z,5.40
2023-07-21T17:43:52.933Z,4.50
2023-07-21T17:46:20.136Z,4.65
2023-07-21T17:48:47.759Z,5.18
2023-07-21T17:51:14.926Z,6.78
2023-07-21T17:53:42.174Z,7.22
2023-07-21T17:56:08.907Z,8.20
2023-07-21T17:58:38.033Z,7.45
2023-07-21T18:01:08.447Z,7.90
2023-07-21T18:03:35.774Z,28.13
2023-07-21T18:06:03.234Z,11.68
2023-07-21T18:08:30.438Z,11.30
2023-07-21T18:10:57.867Z,9.77
2023-07-21T18:13:26.274Z,10.60
2023-07-21T18:15:53.445Z,8.95
2023-07-21T18:18:22.766Z,10.35
2023-07-21T18:20:49.999Z,9.85
2023-07-21T18:23:17.325Z,7.80
2023-07-21T18:25:50.259Z,9.07
2023-07-21T18:28:17.226Z,9.05
2023-07-21T18:30:44.927Z,9.07
2023-07-21T18:33:12.653Z,10.20
2023-07-21T18:35:39.822Z,8.53
2023-07-21T18:38:07.309Z,8.30
2023-07-21T18:40:34.634Z,7.80
2023-07-21T18:43:01.648Z,5.78
2023-07-21T18:45:28.859Z,6.07
2023-07-21T18:47:56.484Z,4.27
2023-07-21T18:50:24.076Z,4.90
2023-07-21T18:52:51.660Z,5.05
2023-07-21T18:55:21.808Z,4.65
2023-07-21T18:57:48.859Z,4.90
2023-07-21T19:00:17.138Z,4.80
2023-07-21T19:02:44.425Z,5.47
2023-07-21T19:05:11.814Z,5.35
2023-07-21T19:07:39.295Z,5.05
2023-07-21T19:10:07.759Z,5.20
2023-07-21T19:12:36.647Z,4.77
2023-07-21T19:15:03.789Z,4.53
2023-07-21T19:17:30.882Z,4.53
2023-07-21T19:19:57.880Z,4.10
2023-07-21T19:22:25.381Z,4.90
2023-07-21T19:24:52.689Z,4.97
2023-07-21T19:27:20.119Z,4.68
2023-07-21T19:29:47.295Z,5.22
2023-07-21T19:32:14.941Z,4.40
2023-07-21T19:34:43.538Z,5.20
2023-07-21T19:37:10.790Z,4.53
2023-07-21T19:39:37.555Z,4.70
2023-07-21T19:42:04.902Z,5.43
2023-07-21T19:44:32.090Z,4.45
2023-07-21T19:46:59.118Z,4.88
2023-07-21T19:49:26.088Z,4.20
2023-07-21T19:51:53.152Z,4.55
2023-07-21T19:54:20.703Z,5.43
2023-07-21T19:56:47.938Z,4.90
2023-07-21T19:59:14.562Z,4.93
2023-07-21T20:01:41.756Z,5.23
2023-07-21T20:04:09.631Z,5.53
2023-07-21T20:06:36.432Z,5.57
2023-07-21T20:09:03.293Z,5.50
2023-07-21T20:11:29.937Z,5.43
2023-07-21T20:13:56.588Z,5.47
2023-07-21T20:16:23.241Z,5.65
2023-07-21T20:18:49.920Z,6.35
2023-07-21T20:21:16.605Z,5.65
2023-07-21T20:23:43.264Z,5.93
2023-07-21T20:26:09.927Z,5.30
2023-07-21T20:28:36.602Z,6.53
2023-07-21T20:31:03.243Z,6.28
2023-07-21T20:33:29.864Z,4.90
2023-07-21T20:35:56.494Z,6.20
2023-07-21T20:38:23.597Z,5.73
2023-07-21T20:40:50.255Z,6.68
2023-07-21T20:43:16.909Z,7.20
2023-07-21T20:45:43.948Z,6.20
2023-07-21T20:48:10.749Z,5.82
2023-07-21T20:50:37.568Z,5.10
2023-07-21T20:53:05.366Z,4.93
2023-07-21T20:55:32.009Z,4.00
2023-07-21T20:57:58.784Z,4.15
2023-07-21T21:00:25.424Z,5.38
2023-07-21T21:02:52.084Z,4.17
2023-07-21T21:05:19.004Z,5.22
2023-07-21T21:07:46.226Z,5.97
2023-07-21T21:10:12.942Z,5.10
2023-07-21T21:12:39.798Z,5.82
2023-07-21T21:15:06.873Z,6.07
2023-07-21T21:17:33.563Z,5.20
2023-07-21T21:20:00.277Z,5.07
2023-07-21T21:22:26.906Z,4.82
2023-07-21T21:24:53.595Z,5.22
2023-07-21T21:27:20.344Z,5.60
2023-07-21T21:29:46.977Z,5.10
2023-07-21T21:32:13.705Z,5.95
2023-07-21T21:34:40.422Z,4.80
2023-07-21T21:37:07.646Z,4.60
2023-07-21T21:39:34.291Z,5.20
2023-07-21T21:42:00.996Z,5.22
2023-07-21T21:44:27.579Z,5.30
2023-07-21T21:46:54.193Z,4.63
2023-07-21T21:49:20.868Z,4.55
2023-07-21T21:51:47.457Z,4.20
2023-07-21T21:54:14.161Z,4.75
2023-07-21T21:56:40.811Z,4.53
2023-07-21T21:59:07.561Z,4.30
2023-07-21T22:01:34.418Z,4.60
2023-07-21T22:04:01.338Z,4.77
2023-07-21T22:06:28.472Z,4.47
2023-07-21T22:08:56.169Z,4.93
2023-07-21T22:11:22.960Z,3.85
2023-07-21T22:13:49.627Z,4.72
2023-07-21T22:16:16.445Z,4.67
2023-07-21T22:18:43.164Z,4.57
2023-07-21T22:21:10.046Z,5.00
2023-07-21T22:23:37.302Z,5.20
2023-07-21T22:26:07.444Z,5.40
2023-07-21T22:28:34.578Z,4.83
2023-07-21T22:31:01.358Z,5.22
2023-07-21T22:33:28.121Z,5.45
2023-07-21T22:35:55.133Z,5.20
2023-07-21T22:38:22.126Z,5.30
2023-07-21T22:40:49.009Z,4.70
2023-07-21T22:43:15.729Z,4.82
2023-07-21T22:45:42.514Z,5.28
2023-07-21T22:48:09.447Z,4.47
2023-07-21T22:50:36.224Z,5.10
2023-07-21T22:53:02.951Z,4.47
2023-07-21T22:55:29.684Z,4.80
2023-07-21T22:57:56.392Z,5.50
2023-07-21T23:00:23.168Z,4.95
2023-07-21T23:02:49.924Z,4.80
2023-07-21T23:05:16.824Z,4.63
2023-07-21T23:07:43.579Z,5.53
2023-07-21T23:10:10.391Z,5.00
2023-07-21T23:12:37.207Z,4.72
2023-07-21T23:15:04.081Z,5.07
2023-07-21T23:17:30.921Z,5.20
2023-07-21T23:19:57.658Z,4.95
2023-07-21T23:22:24.416Z,5.25
2023-07-21T23:24:51.449Z,4.30
2023-07-21T23:27:18.231Z,3.88
2023-07-21T23:29:44.964Z,4.53
2023-07-21T23:32:11.668Z,4.15
2023-07-21T23:34:38.362Z,4.68
2023-07-21T23:37:05.383Z,4.28
2023-07-21T23:39:32.827Z,4.00
2023-07-21T23:41:59.614Z,3.73
2023-07-21T23:44:26.401Z,4.35
2023-07-21T23:46:53.260Z,4.90
2023-07-21T23:49:19.986Z,4.70
2023-07-21T23:51:46.681Z,4.78
2023-07-21T23:54:13.386Z,3.80
2023-07-21T23:56:40.103Z,4.25
2023-07-21T23:59:06.894Z,4.22
